SAB404 LRTR-LATI
Flight info
| Callsign | SAB404 |
|---|---|
| Flight time | 0h 53m |
| Altitude | 30000 |
| Route | MAVIT N188 DONIV DCT MOJ DCT POD DCT RETRA DCT INLOT |
| Aircraft | B737/M-SDE2E3FGHIRWXY/LB1 |
Departure
| Time | 2026-04-30 13:19 |
|---|---|
| Airport | Timișoara Traian Vuia International Airport (LRTR) |
Arrival
| Time | 2026-04-30 14:12 |
|---|---|
| Airport | Tirana International Airport Mother Teresa (LATI) |
| Time | Latitude | Longitude | Altitude | Speed | Heading |
|---|---|---|---|---|---|
| 2026-04-30 13:03 | 45.81022 | 21.32301 | 359 ft | 0 kts | 199° |
| 2026-04-30 13:03 | 45.81021 | 21.32301 | 359 ft | 0 kts | 199° |
| 2026-04-30 13:07 | 45.81020 | 21.32301 | 359 ft | 0 kts | 199° |
| 2026-04-30 13:07 | 45.81020 | 21.32300 | 359 ft | 0 kts | 199° |
| 2026-04-30 13:10 | 45.81019 | 21.32300 | 359 ft | 0 kts | 199° |
| 2026-04-30 13:13 | 45.81030 | 21.32305 | 359 ft | 2 kts | 199° |
| 2026-04-30 13:13 | 45.81047 | 21.32314 | 359 ft | 3 kts | 204° |
| 2026-04-30 13:13 | 45.81070 | 21.32358 | 359 ft | 3 kts | 268° |
| 2026-04-30 13:14 | 45.81068 | 21.32376 | 359 ft | 0 kts | 289° |
| 2026-04-30 13:14 | 45.81073 | 21.32355 | 359 ft | 7 kts | 284° |
| 2026-04-30 13:15 | 45.81093 | 21.32216 | 359 ft | 21 kts | 289° |
| 2026-04-30 13:15 | 45.81220 | 21.31768 | 359 ft | 26 kts | 289° |
| 2026-04-30 13:15 | 45.81294 | 21.31580 | 359 ft | 13 kts | 345° |
| 2026-04-30 13:16 | 45.81404 | 21.31618 | 359 ft | 19 kts | 23° |
| 2026-04-30 13:16 | 45.81486 | 21.31679 | 359 ft | 8 kts | 45° |
| 2026-04-30 13:16 | 45.81494 | 21.31745 | 359 ft | 7 kts | 101° |
| 2026-04-30 13:17 | 45.81492 | 21.31757 | 359 ft | 0 kts | 105° |
| 2026-04-30 13:17 | 45.81492 | 21.31758 | 359 ft | 0 kts | 105° |
| 2026-04-30 13:18 | 45.81491 | 21.31763 | 359 ft | 11 kts | 105° |
| 2026-04-30 13:19 | 45.81332 | 21.32397 | 359 ft | 121 kts | 107° |
| 2026-04-30 13:19 | 45.80958 | 21.33931 | 511 ft | 191 kts | 107° |
| 2026-04-30 13:19 | 45.80517 | 21.35673 | 1917 ft | 183 kts | 106° |
| 2026-04-30 13:19 | 45.80076 | 21.37427 | 2678 ft | 199 kts | 108° |
| 2026-04-30 13:20 | 45.79583 | 21.39384 | 2773 ft | 217 kts | 109° |
| 2026-04-30 13:20 | 45.79047 | 21.41499 | 2821 ft | 235 kts | 109° |
| 2026-04-30 13:20 | 45.78471 | 21.43770 | 2814 ft | 247 kts | 109° |
| 2026-04-30 13:20 | 45.77730 | 21.46017 | 2783 ft | 253 kts | 123° |
| 2026-04-30 13:21 | 45.76367 | 21.47612 | 2802 ft | 256 kts | 150° |
| 2026-04-30 13:21 | 45.74641 | 21.48192 | 2802 ft | 258 kts | 176° |
| 2026-04-30 13:21 | 45.72862 | 21.47810 | 2810 ft | 258 kts | 193° |
| 2026-04-30 13:22 | 45.69466 | 21.46204 | 2801 ft | 259 kts | 198° |
| 2026-04-30 13:22 | 45.67728 | 21.45531 | 2799 ft | 259 kts | 192° |
| 2026-04-30 13:22 | 45.64157 | 21.44959 | 2801 ft | 258 kts | 182° |
| 2026-04-30 13:23 | 45.62362 | 21.44904 | 2801 ft | 258 kts | 180° |
| 2026-04-30 13:23 | 45.58769 | 21.44904 | 2801 ft | 258 kts | 179° |
| 2026-04-30 13:24 | 45.55162 | 21.44907 | 2975 ft | 262 kts | 180° |
| 2026-04-30 13:24 | 45.51588 | 21.43668 | 5316 ft | 267 kts | 199° |
| 2026-04-30 13:25 | 45.47993 | 21.41944 | 7997 ft | 277 kts | 199° |
| 2026-04-30 13:25 | 45.44241 | 21.40198 | 10333 ft | 290 kts | 198° |
| 2026-04-30 13:26 | 45.37966 | 21.37288 | 12827 ft | 343 kts | 199° |
| 2026-04-30 13:26 | 45.33272 | 21.35115 | 14923 ft | 363 kts | 199° |
| 2026-04-30 13:27 | 45.28358 | 21.32843 | 17137 ft | 378 kts | 199° |
| 2026-04-30 13:28 | 45.21472 | 21.30012 | 19936 ft | 396 kts | 192° |
| 2026-04-30 13:28 | 45.15994 | 21.28554 | 21893 ft | 405 kts | 194° |
| 2026-04-30 13:28 | 45.13214 | 21.27763 | 22809 ft | 409 kts | 194° |
| 2026-04-30 13:29 | 45.07565 | 21.26161 | 24499 ft | 417 kts | 194° |
| 2026-04-30 13:29 | 45.01862 | 21.24546 | 25989 ft | 424 kts | 195° |
| 2026-04-30 13:30 | 44.93072 | 21.22064 | 27975 ft | 433 kts | 196° |
| 2026-04-30 13:31 | 44.87117 | 21.20388 | 29136 ft | 439 kts | 196° |
| 2026-04-30 13:31 | 44.78145 | 21.17868 | 30298 ft | 435 kts | 197° |
| 2026-04-30 13:32 | 44.72583 | 21.14992 | 30306 ft | 421 kts | 217° |
| 2026-04-30 13:33 | 44.62896 | 21.05995 | 30303 ft | 417 kts | 218° |
| 2026-04-30 13:34 | 44.55625 | 20.99374 | 30306 ft | 416 kts | 218° |
| 2026-04-30 13:35 | 44.45909 | 20.90557 | 30308 ft | 416 kts | 218° |
| 2026-04-30 13:36 | 44.36199 | 20.81784 | 30310 ft | 414 kts | 218° |
| 2026-04-30 13:36 | 44.28954 | 20.75259 | 30312 ft | 414 kts | 219° |
| 2026-04-30 13:37 | 44.21682 | 20.68732 | 30313 ft | 414 kts | 218° |
| 2026-04-30 13:38 | 44.14404 | 20.62216 | 30291 ft | 413 kts | 219° |
| 2026-04-30 13:39 | 44.04752 | 20.53606 | 30288 ft | 413 kts | 219° |
| 2026-04-30 13:40 | 43.97490 | 20.47149 | 30289 ft | 410 kts | 219° |
| 2026-04-30 13:40 | 43.92693 | 20.42896 | 30288 ft | 408 kts | 219° |
| 2026-04-30 13:41 | 43.87896 | 20.38650 | 30288 ft | 409 kts | 219° |
| 2026-04-30 13:41 | 43.83094 | 20.34409 | 30289 ft | 409 kts | 219° |
| 2026-04-30 13:42 | 43.78315 | 20.30195 | 30288 ft | 409 kts | 219° |
| 2026-04-30 13:42 | 43.71104 | 20.23852 | 30287 ft | 409 kts | 219° |
| 2026-04-30 13:43 | 43.66282 | 20.19622 | 30287 ft | 409 kts | 219° |
| 2026-04-30 13:43 | 43.61500 | 20.15433 | 30286 ft | 409 kts | 219° |
| 2026-04-30 13:44 | 43.56682 | 20.11222 | 30285 ft | 409 kts | 219° |
| 2026-04-30 13:44 | 43.51863 | 20.07018 | 30283 ft | 408 kts | 219° |
| 2026-04-30 13:45 | 43.44686 | 20.00771 | 30280 ft | 408 kts | 219° |
| 2026-04-30 13:46 | 43.39869 | 19.96590 | 30277 ft | 410 kts | 219° |
| 2026-04-30 13:46 | 43.35042 | 19.92406 | 30274 ft | 410 kts | 219° |
| 2026-04-30 13:47 | 43.30250 | 19.88261 | 30270 ft | 409 kts | 219° |
| 2026-04-30 13:47 | 43.25431 | 19.84101 | 30260 ft | 408 kts | 219° |
| 2026-04-30 13:48 | 43.20614 | 19.79950 | 30256 ft | 408 kts | 218° |
| 2026-04-30 13:48 | 43.15800 | 19.75810 | 30253 ft | 408 kts | 218° |
| 2026-04-30 13:49 | 43.11019 | 19.71706 | 30247 ft | 407 kts | 218° |
| 2026-04-30 13:49 | 43.06200 | 19.67575 | 30241 ft | 407 kts | 218° |
| 2026-04-30 13:50 | 43.01395 | 19.63467 | 30235 ft | 407 kts | 218° |
| 2026-04-30 13:50 | 42.94300 | 19.57418 | 30163 ft | 397 kts | 218° |
| 2026-04-30 13:51 | 42.91787 | 19.55781 | 29623 ft | 402 kts | 208° |
| 2026-04-30 13:51 | 42.89175 | 19.54441 | 29020 ft | 397 kts | 208° |
| 2026-04-30 13:51 | 42.86638 | 19.53023 | 28454 ft | 391 kts | 210° |
| 2026-04-30 13:51 | 42.84151 | 19.51582 | 27931 ft | 385 kts | 210° |
| 2026-04-30 13:52 | 42.81703 | 19.50166 | 27425 ft | 380 kts | 210° |
| 2026-04-30 13:52 | 42.79293 | 19.48774 | 26935 ft | 381 kts | 210° |
| 2026-04-30 13:52 | 42.76849 | 19.47364 | 26430 ft | 379 kts | 209° |
| 2026-04-30 13:52 | 42.74434 | 19.45971 | 25931 ft | 376 kts | 209° |
| 2026-04-30 13:53 | 42.72035 | 19.44590 | 25436 ft | 372 kts | 209° |
| 2026-04-30 13:53 | 42.69653 | 19.43218 | 24945 ft | 370 kts | 209° |
| 2026-04-30 13:53 | 42.67295 | 19.41863 | 24460 ft | 367 kts | 209° |
| 2026-04-30 13:53 | 42.64952 | 19.40516 | 23979 ft | 364 kts | 209° |
| 2026-04-30 13:54 | 42.62630 | 19.39183 | 23500 ft | 361 kts | 209° |
| 2026-04-30 13:54 | 42.60347 | 19.37874 | 23031 ft | 359 kts | 209° |
| 2026-04-30 13:54 | 42.58047 | 19.36555 | 22558 ft | 358 kts | 209° |
| 2026-04-30 13:54 | 42.55758 | 19.35244 | 22087 ft | 356 kts | 209° |
| 2026-04-30 13:55 | 42.53474 | 19.33936 | 21614 ft | 354 kts | 208° |
| 2026-04-30 13:55 | 42.51204 | 19.32639 | 21147 ft | 352 kts | 208° |
| 2026-04-30 13:55 | 42.48952 | 19.31353 | 20687 ft | 351 kts | 208° |
| 2026-04-30 13:55 | 42.46696 | 19.30065 | 20224 ft | 350 kts | 208° |
| 2026-04-30 13:56 | 42.44459 | 19.28789 | 19766 ft | 348 kts | 208° |
| 2026-04-30 13:56 | 42.42256 | 19.27532 | 19318 ft | 347 kts | 208° |
| 2026-04-30 13:56 | 42.39980 | 19.26491 | 19155 ft | 344 kts | 196° |
| 2026-04-30 13:56 | 42.37621 | 19.26448 | 19083 ft | 339 kts | 181° |
| 2026-04-30 13:57 | 42.35260 | 19.27151 | 18564 ft | 356 kts | 168° |
| 2026-04-30 13:57 | 42.32916 | 19.28326 | 18040 ft | 361 kts | 163° |
| 2026-04-30 13:57 | 42.30567 | 19.29556 | 17538 ft | 363 kts | 164° |
| 2026-04-30 13:57 | 42.28198 | 19.30770 | 17055 ft | 363 kts | 164° |
| 2026-04-30 13:58 | 42.25840 | 19.31973 | 16574 ft | 360 kts | 164° |
| 2026-04-30 13:58 | 42.21151 | 19.34315 | 15908 ft | 358 kts | 165° |
| 2026-04-30 13:58 | 42.18803 | 19.35426 | 15480 ft | 355 kts | 165° |
| 2026-04-30 13:59 | 42.16500 | 19.36519 | 15076 ft | 353 kts | 164° |
| 2026-04-30 13:59 | 42.14194 | 19.37616 | 14686 ft | 352 kts | 164° |
| 2026-04-30 13:59 | 42.11886 | 19.38713 | 14299 ft | 350 kts | 164° |
| 2026-04-30 13:59 | 42.09594 | 19.39801 | 13915 ft | 348 kts | 164° |
| 2026-04-30 14:00 | 42.07325 | 19.40878 | 13533 ft | 342 kts | 163° |
| 2026-04-30 14:00 | 42.02947 | 19.42953 | 12805 ft | 324 kts | 163° |
| 2026-04-30 14:00 | 42.00833 | 19.43951 | 12442 ft | 318 kts | 163° |
| 2026-04-30 14:01 | 41.98774 | 19.44928 | 12149 ft | 310 kts | 164° |
| 2026-04-30 14:01 | 41.96730 | 19.45747 | 11736 ft | 305 kts | 171° |
| 2026-04-30 14:01 | 41.94642 | 19.46192 | 11140 ft | 310 kts | 174° |
| 2026-04-30 14:01 | 41.92494 | 19.46634 | 10529 ft | 313 kts | 172° |
| 2026-04-30 14:02 | 41.90344 | 19.47127 | 9998 ft | 313 kts | 171° |
| 2026-04-30 14:02 | 41.88196 | 19.47639 | 9407 ft | 314 kts | 169° |
| 2026-04-30 14:02 | 41.86036 | 19.48154 | 8799 ft | 315 kts | 169° |
| 2026-04-30 14:02 | 41.83882 | 19.48665 | 8230 ft | 314 kts | 169° |
| 2026-04-30 14:03 | 41.81732 | 19.49174 | 7677 ft | 313 kts | 168° |
| 2026-04-30 14:03 | 41.79584 | 19.49684 | 7130 ft | 311 kts | 168° |
| 2026-04-30 14:03 | 41.77449 | 19.50190 | 6587 ft | 310 kts | 168° |
| 2026-04-30 14:03 | 41.75327 | 19.50694 | 6048 ft | 308 kts | 168° |
| 2026-04-30 14:04 | 41.73217 | 19.51193 | 5512 ft | 307 kts | 168° |
| 2026-04-30 14:04 | 41.71145 | 19.51683 | 4985 ft | 305 kts | 168° |
| 2026-04-30 14:04 | 41.69057 | 19.52177 | 4455 ft | 304 kts | 168° |
| 2026-04-30 14:04 | 41.67046 | 19.52906 | 4093 ft | 293 kts | 154° |
| 2026-04-30 14:05 | 41.65485 | 19.54494 | 3979 ft | 274 kts | 131° |
| 2026-04-30 14:05 | 41.64580 | 19.56610 | 3959 ft | 254 kts | 108° |
| 2026-04-30 14:05 | 41.64261 | 19.58854 | 3963 ft | 238 kts | 94° |
| 2026-04-30 14:05 | 41.64262 | 19.61002 | 3957 ft | 225 kts | 85° |
| 2026-04-30 14:06 | 41.64400 | 19.63010 | 3951 ft | 214 kts | 82° |
| 2026-04-30 14:06 | 41.64435 | 19.66824 | 3928 ft | 205 kts | 105° |
| 2026-04-30 14:07 | 41.62372 | 19.69161 | 3925 ft | 194 kts | 154° |
| 2026-04-30 14:07 | 41.61068 | 19.69579 | 3694 ft | 192 kts | 167° |
| 2026-04-30 14:07 | 41.59738 | 19.69749 | 3443 ft | 192 kts | 174° |
| 2026-04-30 14:08 | 41.57231 | 19.69962 | 2966 ft | 171 kts | 173° |
| 2026-04-30 14:08 | 41.56058 | 19.70103 | 2727 ft | 169 kts | 172° |
| 2026-04-30 14:08 | 41.53824 | 19.70403 | 2301 ft | 148 kts | 172° |
| 2026-04-30 14:09 | 41.52836 | 19.70536 | 2070 ft | 139 kts | 171° |
| 2026-04-30 14:09 | 41.51888 | 19.70666 | 1879 ft | 136 kts | 171° |
| 2026-04-30 14:09 | 41.50014 | 19.70919 | 1552 ft | 136 kts | 171° |
| 2026-04-30 14:10 | 41.49075 | 19.71045 | 1376 ft | 136 kts | 171° |
| 2026-04-30 14:10 | 41.48135 | 19.71169 | 1200 ft | 135 kts | 171° |
| 2026-04-30 14:10 | 41.47201 | 19.71293 | 1025 ft | 135 kts | 172° |
| 2026-04-30 14:10 | 41.46265 | 19.71417 | 839 ft | 135 kts | 173° |
| 2026-04-30 14:11 | 41.45315 | 19.71545 | 672 ft | 137 kts | 174° |
| 2026-04-30 14:11 | 41.44364 | 19.71673 | 482 ft | 136 kts | 176° |
| 2026-04-30 14:11 | 41.43425 | 19.71797 | 300 ft | 135 kts | 176° |
| 2026-04-30 14:11 | 41.42502 | 19.71919 | 121 ft | 130 kts | 176° |
| 2026-04-30 14:12 | 41.41802 | 19.71998 | 119 ft | 69 kts | 176° |
| 2026-04-30 14:12 | 41.41354 | 19.72076 | 119 ft | 64 kts | 172° |
| 2026-04-30 14:12 | 41.41016 | 19.72098 | 119 ft | 35 kts | 177° |
| 2026-04-30 14:12 | 41.40859 | 19.72119 | 119 ft | 31 kts | 155° |
| 2026-04-30 14:13 | 41.40682 | 19.72118 | 119 ft | 15 kts | 247° |
| 2026-04-30 14:13 | 41.40663 | 19.71982 | 119 ft | 16 kts | 260° |
| 2026-04-30 14:13 | 41.40640 | 19.71821 | 119 ft | 18 kts | 269° |
| 2026-04-30 14:13 | 41.40666 | 19.71765 | 119 ft | 3 kts | 334° |
| 2026-04-30 14:14 | 41.40693 | 19.71757 | 119 ft | 6 kts | 352° |
| 2026-04-30 14:14 | 41.40826 | 19.71738 | 119 ft | 22 kts | 9° |
| 2026-04-30 14:14 | 41.40970 | 19.71718 | 119 ft | 26 kts | 342° |
| 2026-04-30 14:14 | 41.41255 | 19.71659 | 119 ft | 54 kts | 357° |
| 2026-04-30 14:15 | 41.41601 | 19.71624 | 119 ft | 45 kts | 352° |
| 2026-04-30 14:15 | 41.41850 | 19.71589 | 119 ft | 27 kts | 355° |
| 2026-04-30 14:15 | 41.41911 | 19.71519 | 119 ft | 9 kts | 261° |
| 2026-04-30 14:15 | 41.41910 | 19.71512 | 119 ft | 0 kts | 262° |
| 2026-04-30 14:16 | 41.41910 | 19.71507 | 119 ft | 0 kts | 262° |